Relevés horaires Bruxelles-National (Belgique)


Relevés horaires à Bruxelles-National - Jeudi 29 Juill. 2021
Heure UTC1 Température [°C] Vent [km/h] Hum. [%] Pres.4 [hPa] Visi. [Km] Nébu. [octa] Préc.5 [mm] Cond.
2m. Res. Ros. Dir.2 Vit. Moy. Raf.3
23:00 13.8 13.8 10.3 SSO 3.7 3.7 5.6 79 1012(-0.9/3h) 35 4/8 -- --
22:00 15.9 15.9 11.0 SSO 3.7 3.7 5.6 73 1012.2(-0.5/3h) 35 5/8 -- --
21:00 16.2 16.2 9.7 SO 3.7 11.1 16.7 65 1012.6(-0.1/3h) 35 5/8 -- --
20:00 17.4 17.4 8.5 OSO 5.6 9.3 16.7 56 1012.8(0.3/3h) 35 4/8 -- --
19:00 18.9 18.9 8.2 O 9.3 11.1 16.7 50 1012.7(0.1/3h) 35 5/8 -- --
18:00 19.6 19.6 8.5 OSO 11.1 16.7 22.2 49 1012.6(0.0/3h) 35 6/8 0/12h
--
17:00 20.5 20.5 7.8 OSO 11.1 13.0 22.2 44 1012.5(-0.4/3h) 50 7/8 -- --
16:00 21.3 21.3 8.5 OSO 11.1 14.8 20.4 44 1012.6(-0.3/3h) 50 5/8 -- --
15:00 20.5 20.5 8.8 SO 13.0 16.7 22.2 47 1012.6(-0.3/3h) 50 4/8 -- --
14:00 20.2 20.2 7.7 OSO 13.0 14.8 22.2 44 1012.9(0.2/3h) 50 4/8 -- --
13:00 21.1 21.1 8.8 OSO 13.0 16.7 22.2 45 1012.9(0.2/3h) 50 4/8 -- --
12:00 18.5 18.4 9.0 OSO 14.8 14.8 24.1 54 1013(0.2/3h) 50 6/8 0/6h
--
11:00 19.5 19.5 8.3 OSO 13.0 14.8 22.2 48 1012.8(0.1/3h) 50 4/8 -- --
10:00 19.8 19.8 10.0 SO 14.8 14.8 24.1 53 1012.7(0.4/3h) 50 4/8 -- --
09:00 17.6 17.4 9.4 OSO 13.0 14.8 20.4 59 1012.8(1.0/3h) 50 5/8 -- --
08:00 17.0 16.9 10.7 OSO 11.1 14.8 20.4 66 1012.8(1.1/3h) 45 6/8 -- --
07:00 16.1 15.6 11.0 SO 13.0 14.8 20.4 72 1012.4(0.9/3h) 45 3/8 -- --
06:00 15.1 14.6 11.2 SO 11.1 14.8 20.4 78 1011.9(0.7/3h) 45 2/8 trace/12h
--
05:00 14.2 13.7 11.0 SO 9.3 11.1 18.5 81 1011.8(0.8/3h) 35 3/8 -- --
04:00 14.6 14 10.8 OSO 11.1 13.0 20.4 78 1011.5(0.6/3h) 35 4/8 -- --
03:00 15.2 14.9 11.0 SO 9.3 14.8 20.4 76 1011.2(0.1/3h) 35 6/8 -- --
02:00 15.7 15.5 11.2 OSO 9.3 11.1 18.5 75 1011(-0.3/3h) 35 6/8 -- --
01:00 15.6 15.2 10.8 SO 11.1 14.8 20.4 73 1010.9(-0.5/3h) 35 4/8 -- --
00:00 16.5 16.5 11.2 SO 9.3 13.0 22.2 71 1011.1(-0.5/3h) 35 3/8 0/6h
0/24h
Etat du ciel inchangé

1 Coordinated Universal Time. Actuellement il est 18:00 locale et 16:00 UTC.

2 Le vent souffle depuis la direction indiquée vers la direction oposée.

3 Les rafales max. sont disponible 40 min après l'heure du relevé.

4 Pour les stations d'altitude (plus de 600m) le géopotentiel du niveau le plus proche de la pression obligatoire est indiqué.

5 Les stations disposant d'un diffuseur peuvent indiquer "trace". Cela signifie que des précipitations ont touchés le sol mais que la quantité est inférieure à 0.1 mm.

Récapitulatif de la journée
Température [°C] Vent [km/h] Ensoleillement4 [h] Precipitations totale5 [mm] Pression [Hpa]
Min1 Max.2 Moy.3 Max. Min Max.
14.1 21.8 13 24.1 0 h 0 min 0 1010.9 1013.0

1 Température minimale relevée entre 18:00 UTC la veille et 18:00 UTC le jour donné.

2 Température maximale relevée entre 06:00 UTC le jour donné et 06:00 UTC le lendemain.

3 Vent moyen de la journée basé sur les relevés horaires.

4 Ensoleillement en heures relevé entre 06:00 UTC la veille et 06:00 UTC le jour donné.

5 Précipitations totales tombées entre 06:00 UTC la jour donné et 06:00 UTC le lendemain.

Graphiques horaires